Time;durP1;ratioP1;P1;durP2;ratioP2;P2;SDS_P1;SDS_P2;PMS_P1;PMS_P2;Temp;Humidity;BMP_temperature;BMP_pressure;BME280_temperature;BME280_humidity;BME280_pressure;Samples;Min_cycle;Max_cycle;Signal;HPM_P1;HPM_P2
2022/08/16 04:22:35;;;;;;;5.70;3.47;;;;;;;16.04;98.09;99484.88;5089203;28;20832;-66
2022/08/16 04:25:04;;;;;;;5.45;3.70;;;;;;;16.06;98.39;99488.16;5089168;28;20032;-66
2022/08/16 04:27:34;;;;;;;10.57;4.43;;;;;;;16.09;98.41;99492.22;5067662;28;20048;-65
2022/08/16 04:30:00;;;;;;;6.60;3.50;;;;;;;16.07;98.35;99499.72;5068589;28;20036;-65
2022/08/16 04:32:25;;;;;;;5.28;3.05;;;;;;;16.11;97.92;99499.03;5067507;28;20033;-66
2022/08/16 04:34:52;;;;;;;4.85;3.15;;;;;;;16.12;97.72;99500.66;5068053;28;20052;-66
2022/08/16 04:37:17;;;;;;;5.15;3.45;;;;;;;16.04;98.41;99494.78;5068759;28;20075;-65
2022/08/16 04:39:47;;;;;;;5.70;3.33;;;;;;;16.10;98.25;99496.56;5067186;28;20041;-66
2022/08/16 04:42:15;;;;;;;6.63;4.05;;;;;;;16.15;98.20;99510.13;5067289;28;20466;-65
2022/08/16 04:44:40;;;;;;;7.03;3.20;;;;;;;16.13;98.24;99514.91;5068684;28;20032;-66
2022/08/16 04:47:06;;;;;;;4.68;3.60;;;;;;;16.07;99.26;99515.81;5067196;28;20404;-67
2022/08/16 04:49:31;;;;;;;5.32;3.53;;;;;;;16.16;98.45;99517.13;5066993;28;20456;-66
2022/08/16 04:51:56;;;;;;;6.95;3.72;;;;;;;16.15;98.55;99516.31;5067380;28;20054;-66
2022/08/16 04:54:23;;;;;;;6.57;3.88;;;;;;;16.17;98.55;99521.47;5050732;28;20059;-66
2022/08/16 04:56:48;;;;;;;11.57;3.75;;;;;;;16.27;97.90;99521.75;5067154;28;20037;-66
2022/08/16 04:59:13;;;;;;;6.65;3.72;;;;;;;16.34;97.55;99527.84;5066686;28;20041;-66
2022/08/16 05:01:39;;;;;;;8.30;4.20;;;;;;;16.34;98.33;99527.84;5066893;28;20436;-66
2022/08/16 05:04:05;;;;;;;5.50;3.53;;;;;;;16.42;97.71;99537.44;5068276;28;20063;-66
2022/08/16 05:06:36;;;;;;;6.25;3.90;;;;;;;16.47;96.77;99530.34;5068334;28;20035;-66
2022/08/16 05:09:03;;;;;;;5.50;3.88;;;;;;;16.58;95.59;99541.38;5066789;28;20033;-66
2022/08/16 05:11:29;;;;;;;5.78;3.72;;;;;;;16.64;94.42;99535.91;5066803;28;20039;-66
2022/08/16 05:13:55;;;;;;;7.10;3.30;;;;;;;16.70;94.17;99536.88;5066803;28;20060;-67
2022/08/16 05:16:29;;;;;;;4.93;3.03;;;;;;;16.73;94.63;99539.09;5066622;28;20033;-57
2022/08/16 05:19:05;;;;;;;6.13;3.78;;;;;;;16.82;93.41;99548.47;5066407;28;20561;-58
2022/08/16 05:21:37;;;;;;;5.82;3.58;;;;;;;16.89;92.86;99546.53;5066418;28;20068;-55
2022/08/16 05:24:04;;;;;;;5.45;3.65;;;;;;;16.99;92.79;99546.75;5066415;28;20386;-52
2022/08/16 05:26:31;;;;;;;6.82;4.15;;;;;;;17.06;92.34;99547.47;5049753;28;20131;-54
2022/08/16 05:28:57;;;;;;;5.35;3.95;;;;;;;17.11;92.47;99554.03;5066237;28;20127;-53
2022/08/16 05:31:26;;;;;;;6.13;4.00;;;;;;;17.16;92.26;99551.47;5066047;28;20032;-53
2022/08/16 05:33:51;;;;;;;9.57;3.85;;;;;;;17.23;92.16;99554.88;5053503;28;20037;-56
2022/08/16 05:36:17;;;;;;;6.82;3.95;;;;;;;17.29;92.09;99557.44;5054148;28;20044;-55
2022/08/16 05:38:47;;;;;;;6.30;3.75;;;;;;;17.37;91.49;99553.56;5052901;28;20043;-52
2022/08/16 05:41:14;;;;;;;5.85;3.33;;;;;;;17.44;91.61;99554.28;5052651;28;20517;-55
2022/08/16 05:43:42;;;;;;;6.68;4.40;;;;;;;17.51;91.21;99552.28;5052918;28;20033;-56
2022/08/16 05:46:10;;;;;;;7.68;4.57;;;;;;;17.57;91.63;99553.22;5052717;28;20033;-54
2022/08/16 05:48:35;;;;;;;5.80;3.90;;;;;;;17.63;91.78;99553.09;5052733;28;20501;-58
2022/08/16 05:51:05;;;;;;;10.07;4.25;;;;;;;17.69;91.39;99554.03;5052320;28;20037;-55
2022/08/16 05:53:32;;;;;;;;;;;;;;;17.75;91.31;99555.81;5053069;28;20138;-52
2022/08/16 05:56:18;;;;;;;8.48;4.35;;;;;;;17.82;90.09;99552.97;5053584;28;20339;-52
2022/08/16 05:58:44;;;;;;;6.47;3.80;;;;;;;17.80;90.58;99553.22;5052470;28;20033;-55
2022/08/16 06:01:13;;;;;;;7.80;4.70;;;;;;;17.88;89.87;99560.94;5052215;28;20115;-54
2022/08/16 06:03:41;;;;;;;6.75;4.43;;;;;;;17.95;89.66;99571.59;5052407;28;20037;-53
2022/08/16 06:06:26;;;;;;;8.30;4.35;;;;;;;17.99;88.44;99569.22;5052399;28;20040;-59
2022/08/16 06:08:52;;;;;;;6.55;3.78;;;;;;;18.03;88.85;99571.19;5052565;28;20043;-55
2022/08/16 06:11:17;;;;;;;7.20;4.13;;;;;;;18.06;88.72;99572.59;5053567;28;20501;-56
2022/08/16 06:13:50;;;;;;;8.95;4.90;;;;;;;18.14;88.34;99574.94;5052387;28;20041;-55
2022/08/16 06:16:21;;;;;;;5.93;4.20;;;;;;;18.18;88.15;99576.06;5052275;28;20619;-57
2022/08/16 06:18:51;;;;;;;7.90;4.45;;;;;;;18.22;88.25;99576.44;5053392;28;20119;-58
2022/08/16 06:21:16;;;;;;;6.50;4.22;;;;;;;18.27;87.53;99580.06;5051851;28;20167;-59
2022/08/16 06:23:43;;;;;;;14.63;5.17;;;;;;;18.31;87.23;99574.97;5052207;28;20032;-56
2022/08/16 06:26:10;;;;;;;7.38;4.20;;;;;;;18.37;86.81;99579.41;5035669;28;20032;-54
2022/08/16 06:28:43;;;;;;;6.78;4.03;;;;;;;18.44;87.21;99577.41;5051969;28;20504;-58
2022/08/16 06:31:15;;;;;;;6.35;3.90;;;;;;;18.51;88.02;99580.75;5051793;28;20486;-57
2022/08/16 06:33:44;;;;;;;8.35;4.97;;;;;;;18.67;86.53;99573.81;5052004;28;20045;-57
2022/08/16 06:36:13;;;;;;;6.50;4.00;;;;;;;18.76;86.25;99580.44;5051812;28;20118;-55
2022/08/16 06:38:39;;;;;;;8.50;5.15;;;;;;;18.85;85.89;99580.88;5053149;28;20040;-57
2022/08/16 06:41:15;;;;;;;8.13;4.78;;;;;;;18.92;85.54;99576.16;5051519;28;20033;-57
2022/08/16 06:43:41;;;;;;;9.07;4.45;;;;;;;19.07;84.67;99581.78;5034687;28;20029;-55
2022/08/16 06:46:26;;;;;;;6.78;4.80;;;;;;;19.19;85.67;99585.25;5051521;28;20128;-55
2022/08/16 06:48:52;;;;;;;8.40;4.95;;;;;;;19.34;85.97;99576.56;5051612;28;20033;-53
2022/08/16 06:51:18;;;;;;;8.60;5.35;;;;;;;19.49;84.89;99570.56;5052649;28;20124;-53
2022/08/16 06:53:43;;;;;;;9.15;4.95;;;;;;;19.64;83.69;99572.72;5051440;28;20128;-58
2022/08/16 06:56:09;;;;;;;7.03;4.63;;;;;;;19.76;82.96;99576.94;5051464;28;20036;-53
2022/08/16 06:58:46;;;;;;;6.32;4.40;;;;;;;19.90;82.48;99576.59;5051320;28;20045;-56
2022/08/16 07:01:18;;;;;;;8.90;4.85;;;;;;;20.01;81.15;99562.91;5051272;28;20498;-53
2022/08/16 07:03:49;;;;;;;8.13;4.50;;;;;;;20.08;80.71;99567.31;5051376;28;20119;-55
2022/08/16 07:06:17;;;;;;;8.25;4.35;;;;;;;20.15;80.84;99579.59;5051153;28;20577;-58
2022/08/16 07:08:45;;;;;;;8.50;4.88;;;;;;;20.22;79.51;99582.13;5051189;28;20082;-55
2022/08/16 07:11:12;;;;;;;9.50;5.20;;;;;;;20.36;78.79;99590.66;5051034;28;20175;-58
2022/08/16 07:13:38;;;;;;;8.05;4.70;;;;;;;20.61;78.03;99584.75;5052394;28;20032;-59
2022/08/16 07:16:05;;;;;;;8.00;4.93;;;;;;;20.65;77.01;99583.16;5051076;28;20040;-52
2022/08/16 07:18:34;;;;;;;6.38;4.63;;;;;;;20.81;76.00;99580.34;5050955;28;20116;-56
2022/08/16 07:21:00;;;;;;;6.63;4.75;;;;;;;20.99;74.90;99578.31;5050503;28;20057;-58
2022/08/16 07:23:26;;;;;;;6.38;4.78;;;;;;;21.08;74.98;99579.50;5050914;28;20595;-57
2022/08/16 07:25:55;;;;;;;12.18;4.82;;;;;;;21.20;73.32;99580.16;5050806;28;20036;-58
2022/08/16 07:28:22;;;;;;;8.68;4.47;;;;;;;21.28;72.70;99576.13;5050917;28;20074;-58
2022/08/16 07:30:48;;;;;;;6.30;4.45;;;;;;;21.40;72.39;99580.31;5050496;28;20508;-55
2022/08/16 07:33:24;;;;;;;7.03;4.53;;;;;;;21.49;71.77;99582.53;5050763;28;20525;-58
2022/08/16 07:35:49;;;;;;;10.63;5.22;;;;;;;21.59;70.77;99571.78;5050668;28;20037;-55
2022/08/16 07:38:16;;;;;;;8.88;4.50;;;;;;;21.76;69.46;99572.41;5050822;28;20111;-54
2022/08/16 07:40:49;;;;;;;6.50;4.15;;;;;;;21.78;69.93;99570.25;5050357;28;20201;-55
2022/08/16 07:43:15;;;;;;;7.65;4.53;;;;;;;21.94;68.87;99571.16;5050532;28;20575;-58
2022/08/16 07:45:40;;;;;;;5.80;3.90;;;;;;;22.12;68.30;99569.91;5050509;28;20033;-57
2022/08/16 07:48:06;;;;;;;5.88;4.28;;;;;;;22.26;67.79;99575.66;5050569;28;20059;-56
2022/08/16 07:50:34;;;;;;;6.32;3.92;;;;;;;22.33;68.03;99568.06;5050227;28;20029;-53
2022/08/16 07:53:00;;;;;;;6.03;4.15;;;;;;;22.42;67.20;99580.03;5051938;28;20441;-57
2022/08/16 07:55:25;;;;;;;5.20;3.83;;;;;;;22.64;66.55;99577.94;5050128;28;20040;-55
2022/08/16 07:57:51;;;;;;;7.95;4.30;;;;;;;22.61;65.53;99577.63;5050269;28;20033;-57
2022/08/16 08:00:17;;;;;;;4.15;3.60;;;;;;;22.65;66.94;99573.31;5051300;28;20572;-56
2022/08/16 08:02:46;;;;;;;5.47;3.92;;;;;;;22.83;65.25;99585.56;5034375;28;20106;-55
2022/08/16 08:05:18;;;;;;;8.60;4.05;;;;;;;23.01;64.81;99583.16;5050514;28;20048;-54
2022/08/16 08:07:44;;;;;;;7.32;3.85;;;;;;;23.12;63.83;99585.88;5050213;28;20041;-53
2022/08/16 08:10:09;;;;;;;4.50;3.58;;;;;;;23.14;63.28;99586.41;5051466;28;20091;-53
2022/08/16 08:12:36;;;;;;;8.30;4.13;;;;;;;23.11;64.39;99584.25;5050085;28;20041;-54
2022/08/16 08:15:06;;;;;;;4.95;3.67;;;;;;;23.17;64.51;99583.97;5051507;28;20494;-54
2022/08/16 08:17:32;;;;;;;5.90;3.58;;;;;;;23.39;62.88;99594.56;5050133;28;20539;-51
2022/08/16 08:19:59;;;;;;;3.65;3.33;;;;;;;23.58;62.95;99594.00;5050033;28;20029;-55
2022/08/16 08:22:24;;;;;;;6.75;3.88;;;;;;;23.62;60.91;99589.69;5051332;28;20033;-60
2022/08/16 08:24:52;;;;;;;4.43;3.63;;;;;;;23.91;60.50;99590.69;5050113;28;20037;-61
2022/08/16 08:27:18;;;;;;;7.45;4.20;;;;;;;23.88;60.86;99591.25;5049910;28;20505;-62
2022/08/16 08:29:44;;;;;;;9.07;3.92;;;;;;;23.94;60.69;99595.56;5049604;28;20510;-60
2022/08/16 08:32:12;;;;;;;5.47;3.60;;;;;;;24.13;60.24;99593.06;5049711;28;20060;-60
2022/08/16 08:34:37;;;;;;;6.82;3.97;;;;;;;24.18;59.41;99595.75;5051080;28;20064;-57
2022/08/16 08:37:04;;;;;;;5.40;3.85;;;;;;;24.27;57.96;99590.56;5049758;28;20127;-59
2022/08/16 08:39:37;;;;;;;7.63;3.92;;;;;;;24.56;57.77;99585.25;5049677;28;20549;-59
2022/08/16 08:42:04;;;;;;;5.88;4.28;;;;;;;24.54;57.78;99577.38;5049765;28;20387;-56
2022/08/16 08:44:30;;;;;;;5.30;4.05;;;;;;;24.65;56.27;99589.03;5049822;28;20033;-60
2022/08/16 08:47:05;;;;;;;4.55;3.60;;;;;;;24.69;56.36;99579.19;5049916;28;20044;-60
2022/08/16 08:49:33;;;;;;;6.10;3.85;;;;;;;25.00;57.49;99589.88;5049463;28;20036;-59
2022/08/16 08:51:59;;;;;;;6.05;4.03;;;;;;;25.07;57.42;99591.19;5049709;28;20406;-61
2022/08/16 08:54:25;;;;;;;4.45;3.53;;;;;;;25.09;56.75;99596.34;5049863;28;20041;-61
2022/08/16 08:56:53;;;;;;;4.32;3.17;;;;;;;24.99;56.87;99602.69;5049619;28;20048;-61
2022/08/16 08:59:33;;;;;;;6.50;3.78;;;;;;;24.95;57.19;99601.59;5049442;28;20035;-56
2022/08/16 09:02:00;;;;;;;7.03;3.93;;;;;;;24.93;57.16;99605.72;5049714;28;20084;-60
2022/08/16 09:04:31;;;;;;;4.38;3.42;;;;;;;24.75;58.42;99610.72;5049880;28;20299;-57
2022/08/16 09:06:58;;;;;;;;;;;;;;;24.59;58.97;99610.03;5049936;28;20048;-60
2022/08/16 09:09:23;;;;;;;8.57;4.60;;;;;;;24.53;57.73;99613.84;5053059;28;19920;-57
2022/08/16 09:11:55;;;;;;;7.43;4.55;;;;;;;24.45;58.68;99614.44;5052995;28;20032;-58
2022/08/16 09:14:21;;;;;;;6.32;3.83;;;;;;;24.43;58.10;99608.44;5055158;28;20441;-58
2022/08/16 09:16:46;;;;;;;7.85;4.68;;;;;;;24.36;57.95;99611.47;5054519;28;20069;-59
2022/08/16 09:19:12;;;;;;;5.18;3.95;;;;;;;24.41;59.40;99618.00;5069638;28;20124;-59
2022/08/16 09:21:37;;;;;;;4.45;3.58;;;;;;;24.70;59.03;99610.75;5052843;28;20037;-58
2022/08/16 09:24:04;;;;;;;5.53;3.83;;;;;;;24.69;57.84;99616.47;5053150;28;20437;-59
2022/08/16 09:26:29;;;;;;;7.53;4.20;;;;;;;24.98;57.26;99609.22;5052964;28;20506;-58
2022/08/16 09:28:56;;;;;;;4.75;3.45;;;;;;;25.25;55.30;99614.22;5053160;28;20120;-56
2022/08/16 09:31:23;;;;;;;5.20;3.13;;;;;;;25.58;54.08;99604.38;5069523;28;20044;-60
2022/08/16 09:33:50;;;;;;;4.90;3.67;;;;;;;26.19;54.63;99598.25;5054284;28;20040;-57
2022/08/16 09:36:15;;;;;;;4.93;4.00;;;;;;;26.17;51.06;99602.41;5054183;28;20108;-56
2022/08/16 09:38:41;;;;;;;5.53;3.63;;;;;;;26.69;50.02;99606.94;5054115;28;20192;-61
2022/08/16 09:41:09;;;;;;;4.38;3.30;;;;;;;26.83;50.24;99600.72;5054005;28;20037;-58
2022/08/16 09:43:36;;;;;;;4.50;3.75;;;;;;;27.27;49.53;99601.13;5054107;28;20514;-56
2022/08/16 09:46:03;;;;;;;3.80;3.35;;;;;;;27.56;49.37;99605.56;5052848;28;20036;-57
2022/08/16 09:48:31;;;;;;;4.65;3.15;;;;;;;27.81;49.69;99604.31;5053897;28;20116;-61
2022/08/16 09:50:57;;;;;;;4.25;3.25;;;;;;;28.27;47.79;99611.59;5053720;28;20041;-60
2022/08/16 09:53:22;;;;;;;4.38;3.03;;;;;;;28.42;46.14;99610.50;5054065;28;20062;-61
2022/08/16 09:55:51;;;;;;;4.82;3.20;;;;;;;28.80;46.57;99606.34;5053807;28;20115;-61
2022/08/16 09:58:22;;;;;;;5.30;2.80;;;;;;;29.09;45.45;99596.94;5053872;28;20071;-61
2022/08/16 10:00:49;;;;;;;4.18;2.95;;;;;;;29.61;44.18;99605.53;5053454;28;20033;-61
2022/08/16 10:03:19;;;;;;;3.95;3.30;;;;;;;29.93;43.19;99599.69;5052543;28;20024;-59
2022/08/16 10:05:53;;;;;;;3.60;2.92;;;;;;;29.83;42.39;99597.22;5053721;28;20405;-60
2022/08/16 10:08:25;;;;;;;3.25;2.92;;;;;;;29.64;42.44;99602.13;5052398;28;20462;-60
2022/08/16 10:13:44;;;;;;;2.85;2.55;;;;;;;28.83;44.69;99611.22;5053524;28;20044;-60
2022/08/16 10:16:12;;;;;;;4.20;2.83;;;;;;;28.70;44.86;99600.31;5053493;28;20568;-61
2022/08/16 10:18:42;;;;;;;2.80;2.50;;;;;;;29.01;43.47;99586.69;5053199;28;20041;-62
2022/08/16 10:21:14;;;;;;;3.38;2.72;;;;;;;29.28;42.60;99592.06;5052968;28;20037;-60
2022/08/16 10:23:41;;;;;;;3.03;2.70;;;;;;;29.45;42.93;99592.16;5053217;28;20075;-61
2022/08/16 10:26:07;;;;;;;2.75;2.45;;;;;;;29.59;41.61;99594.03;5052992;28;20046;-61
2022/08/16 10:28:45;;;;;;;4.30;3.17;;;;;;;28.93;41.65;99589.06;5053208;28;20029;-61
2022/08/16 10:31:20;;;;;;;3.10;2.60;;;;;;;28.37;43.89;99586.78;5052944;28;20112;-60
2022/08/16 10:33:45;;;;;;;4.18;2.50;;;;;;;28.36;43.96;99607.03;5053575;28;20059;-61
2022/08/16 10:36:12;;;;;;;3.67;2.25;;;;;;;28.07;45.10;99599.16;5053011;28;20033;-62
2022/08/16 10:38:38;;;;;;;;;;;;;;;28.08;45.43;99596.09;5053479;28;20040;-62
2022/08/16 10:41:06;;;;;;;3.17;2.60;;;;;;;27.81;45.67;99596.91;5052790;28;19916;-62
2022/08/16 10:43:32;;;;;;;3.13;2.83;;;;;;;27.71;46.06;99601.75;5052949;28;20045;-61
2022/08/16 10:45:58;;;;;;;3.35;2.97;;;;;;;27.65;45.95;99598.28;5052702;28;20045;-61
2022/08/16 10:48:23;;;;;;;4.65;2.50;;;;;;;27.62;47.01;99604.34;5052920;28;20033;-62
2022/08/16 10:50:48;;;;;;;2.35;2.10;;;;;;;27.65;45.86;99603.75;5052478;28;20482;-62
2022/08/16 10:53:16;;;;;;;2.90;2.60;;;;;;;27.70;46.25;99597.41;5052627;28;20037;-62
2022/08/16 10:55:42;;;;;;;3.03;2.72;;;;;;;28.26;45.12;99610.00;5052674;28;20122;-62
2022/08/16 10:58:10;;;;;;;2.75;2.40;;;;;;;28.68;43.82;99603.34;5052719;28;20083;-62
2022/08/16 11:00:39;;;;;;;2.58;2.05;;;;;;;28.63;43.13;99607.03;5052221;28;20451;-61
2022/08/16 11:03:05;;;;;;;2.28;2.08;;;;;;;28.59;42.35;99608.75;5052555;28;20036;-61
2022/08/16 11:05:34;;;;;;;2.42;1.70;;;;;;;28.83;43.21;99603.00;5052403;28;20041;-60
2022/08/16 11:08:00;;;;;;;2.80;2.50;;;;;;;29.67;41.26;99594.09;5052339;28;20120;-61
2022/08/16 11:10:32;;;;;;;2.55;2.35;;;;;;;30.38;41.49;99594.00;5052238;28;20048;-62
2022/08/16 11:12:58;;;;;;;2.60;2.35;;;;;;;31.25;39.48;99594.09;5052501;28;20092;-61
2022/08/16 11:15:24;;;;;;;4.22;2.63;;;;;;;31.93;36.81;99595.03;5052303;28;20037;-62
2022/08/16 11:17:51;;;;;;;2.45;2.25;;;;;;;31.15;36.79;99599.88;5052358;28;20486;-62
2022/08/16 11:20:17;;;;;;;3.58;2.20;;;;;;;32.04;36.22;99598.22;5051808;28;20433;-62
2022/08/16 11:22:45;;;;;;;2.60;2.10;;;;;;;32.78;34.22;99592.06;5052135;28;20086;-62
2022/08/16 11:25:14;;;;;;;2.50;2.30;;;;;;;33.03;35.72;99604.06;5052174;28;20037;-62
2022/08/16 11:27:40;;;;;;;3.28;2.20;;;;;;;33.35;32.71;99599.69;5052137;28;20065;-62
2022/08/16 11:30:07;;;;;;;4.67;2.23;;;;;;;32.49;34.67;99598.47;5051354;28;20040;-62
2022/08/16 11:32:34;;;;;;;2.38;2.05;;;;;;;33.37;33.57;99589.09;5052173;28;20440;-64
2022/08/16 11:35:06;;;;;;;2.50;2.30;;;;;;;32.01;35.25;99601.63;5051982;28;20367;-64
2022/08/16 11:37:33;;;;;;;2.88;2.17;;;;;;;31.33;35.62;99596.81;5051989;28;20498;-62
2022/08/16 11:39:59;;;;;;;2.50;2.10;;;;;;;30.79;36.54;99592.81;5051684;28;20086;-62
2022/08/16 11:42:25;;;;;;;2.13;1.93;;;;;;;30.91;37.05;99589.38;5051825;28;20052;-62
2022/08/16 11:44:50;;;;;;;2.53;2.30;;;;;;;31.04;36.90;99583.75;5051911;28;20040;-62
2022/08/16 11:47:16;;;;;;;3.47;2.22;;;;;;;32.18;34.52;99581.47;5051765;28;20048;-63
2022/08/16 11:49:41;;;;;;;1.85;1.63;;;;;;;32.71;33.93;99589.06;5051543;28;20040;-62
2022/08/16 11:52:07;;;;;;;2.53;1.90;;;;;;;32.48;32.36;99582.28;5051803;28;20388;-62
2022/08/16 11:54:32;;;;;;;2.03;1.60;;;;;;;32.83;32.40;99589.13;5051842;28;20041;-62
2022/08/16 11:56:58;;;;;;;2.80;1.77;;;;;;;33.30;31.14;99574.25;5051693;28;20064;-62
2022/08/16 11:59:26;;;;;;;2.13;1.83;;;;;;;33.58;30.75;99579.97;5051451;28;20067;-63
2022/08/16 12:01:52;;;;;;;1.95;1.70;;;;;;;33.67;29.49;99570.47;5051542;28;20033;-62
2022/08/16 12:04:17;;;;;;;2.07;1.83;;;;;;;33.55;30.41;99578.72;5051631;28;20033;-62
2022/08/16 12:06:42;;;;;;;1.50;1.33;;;;;;;32.76;31.80;99571.50;5051606;28;20048;-62
2022/08/16 12:09:08;;;;;;;1.80;1.70;;;;;;;33.18;32.14;99578.59;5051402;28;20052;-62
2022/08/16 12:11:33;;;;;;;1.90;1.63;;;;;;;33.99;30.37;99571.53;5051607;28;20431;-62
2022/08/16 12:14:01;;;;;;;1.77;1.50;;;;;;;34.52;29.78;99566.06;5051544;28;20433;-62
2022/08/16 12:16:27;;;;;;;1.88;1.63;;;;;;;35.25;30.19;99567.75;5051444;28;20037;-62
2022/08/16 12:18:52;;;;;;;1.80;1.70;;;;;;;35.47;29.13;99566.38;5051223;28;20045;-62
2022/08/16 12:21:18;;;;;;;2.90;1.73;;;;;;;35.10;29.56;99563.00;5051288;28;20041;-62
2022/08/16 12:23:43;;;;;;;2.40;1.70;;;;;;;35.20;29.77;99560.50;5051519;28;20037;-62
2022/08/16 12:26:09;;;;;;;1.70;1.60;;;;;;;35.13;29.09;99557.56;5051365;28;20040;-63
2022/08/16 12:28:34;;;;;;;3.03;1.80;;;;;;;34.98;29.91;99550.84;5051443;28;20375;-63
2022/08/16 12:31:00;;;;;;;2.00;1.80;;;;;;;35.26;29.41;99550.78;5050992;28;20040;-63
2022/08/16 12:33:25;;;;;;;2.43;1.90;;;;;;;35.57;28.28;99550.03;5051268;28;20068;-62
2022/08/16 12:35:51;;;;;;;1.77;1.67;;;;;;;34.96;28.55;99553.16;5051219;28;20040;-62
2022/08/16 12:38:16;;;;;;;2.73;1.80;;;;;;;33.99;30.31;99552.19;5051282;28;20037;-62
2022/08/16 12:40:47;;;;;;;1.80;1.70;;;;;;;33.56;30.80;99549.97;5050945;28;20124;-62
2022/08/16 12:43:14;;;;;;;1.88;1.73;;;;;;;33.41;31.08;99556.16;5052319;28;20473;-62
2022/08/16 12:45:45;;;;;;;;;;;;;;;33.72;30.53;99550.91;5055687;28;20104;-62
2022/08/16 12:50:56;;;;;;;1.63;1.52;;;;;;;33.47;31.41;99550.06;5054757;28;20691;-62
2022/08/16 12:53:23;;;;;;;1.80;1.70;;;;;;;33.31;31.37;99542.75;5054995;28;20041;-64
2022/08/16 12:55:49;;;;;;;2.35;2.08;;;;;;;32.98;31.88;99540.81;5054871;28;20036;-62
2022/08/16 12:58:14;;;;;;;2.10;1.75;;;;;;;32.01;32.14;99538.28;5054852;28;20095;-62
2022/08/16 13:00:41;;;;;;;1.93;1.73;;;;;;;32.49;32.41;99540.59;5054606;28;20487;-62
2022/08/16 13:03:08;;;;;;;;;;;;;;;32.64;31.90;99539.16;5055170;28;20044;-62
2022/08/16 13:05:39;;;;;;;1.48;1.38;;;;;;;32.83;30.52;99541.44;5053656;28;19970;-62
2022/08/16 13:08:07;;;;;;;1.58;1.45;;;;;;;33.73;30.28;99527.66;5054856;28;20056;-62
2022/08/16 13:10:32;;;;;;;1.80;1.40;;;;;;;34.15;28.68;99532.94;5054390;28;20037;-62
2022/08/16 13:12:58;;;;;;;2.63;1.67;;;;;;;34.32;28.53;99533.84;5054645;28;20547;-63
2022/08/16 13:15:27;;;;;;;1.70;1.50;;;;;;;34.79;27.96;99534.06;5054659;28;20140;-63
2022/08/16 13:17:53;;;;;;;1.58;1.40;;;;;;;35.29;27.11;99522.41;5054632;28;20048;-63
2022/08/16 13:20:22;;;;;;;1.67;1.48;;;;;;;35.56;27.45;99523.53;5054291;28;20401;-63
2022/08/16 13:22:53;;;;;;;1.60;1.50;;;;;;;35.15;27.64;99530.34;5053192;28;20044;-63
2022/08/16 13:25:22;;;;;;;2.45;1.33;;;;;;;35.12;26.88;99525.50;5054237;28;20064;-63
2022/08/16 13:27:49;;;;;;;1.70;1.60;;;;;;;34.96;27.02;99521.94;5054389;28;20115;-63
2022/08/16 13:30:14;;;;;;;3.95;1.80;;;;;;;34.54;28.22;99520.31;5054037;28;20130;-63
2022/08/16 13:32:40;;;;;;;3.33;1.40;;;;;;;34.71;28.22;99521.19;5054432;28;20061;-63
2022/08/16 13:35:06;;;;;;;2.00;1.60;;;;;;;35.28;28.07;99526.34;5054348;28;20047;-63
2022/08/16 13:37:31;;;;;;;1.83;1.40;;;;;;;35.13;26.93;99513.28;5054177;28;20116;-63
2022/08/16 13:39:57;;;;;;;2.37;1.47;;;;;;;35.36;26.89;99516.25;5053868;28;20067;-63
2022/08/16 13:42:24;;;;;;;1.60;1.50;;;;;;;35.25;26.74;99512.41;5053031;28;20453;-62
2022/08/16 13:44:50;;;;;;;1.60;1.20;;;;;;;35.08;27.99;99508.84;5054129;28;20033;-62
2022/08/16 13:47:15;;;;;;;1.77;1.38;;;;;;;34.93;26.79;99509.59;5054042;28;20052;-63
2022/08/16 13:49:41;;;;;;;1.40;1.30;;;;;;;34.32;28.06;99506.22;5052571;28;20501;-63
2022/08/16 13:52:08;;;;;;;1.40;1.30;;;;;;;34.23;28.35;99498.88;5053827;28;20048;-63
2022/08/16 13:54:34;;;;;;;1.50;1.38;;;;;;;34.15;29.59;99497.03;5053405;28;20044;-64
2022/08/16 13:57:00;;;;;;;1.47;1.37;;;;;;;33.66;30.07;99501.78;5053806;28;20049;-63
2022/08/16 13:59:26;;;;;;;1.30;1.20;;;;;;;33.10;29.61;99507.75;5053628;28;20127;-63
2022/08/16 14:01:53;;;;;;;1.37;1.20;;;;;;;33.15;30.48;99507.56;5052671;28;20069;-63
2022/08/16 14:04:19;;;;;;;1.60;1.33;;;;;;;32.89;29.34;99509.78;5053686;28;20037;-63
2022/08/16 14:06:44;;;;;;;1.60;1.50;;;;;;;32.78;29.28;99505.78;5053648;28;20043;-63
2022/08/16 14:09:10;;;;;;;2.03;1.63;;;;;;;32.45;29.96;99503.00;5053268;28;20041;-63
2022/08/16 14:11:38;;;;;;;1.40;1.30;;;;;;;32.24;30.64;99509.31;5053580;28;20042;-63
2022/08/16 14:14:04;;;;;;;1.70;1.60;;;;;;;32.29;30.97;99506.34;5052440;28;20060;-63
2022/08/16 14:16:29;;;;;;;1.33;1.23;;;;;;;32.28;31.79;99501.19;5052395;28;20410;-63
2022/08/16 14:18:54;;;;;;;1.63;1.53;;;;;;;32.23;31.42;99499.44;5053347;28;20122;-63
2022/08/16 14:21:21;;;;;;;1.57;1.47;;;;;;;32.08;31.08;99500.84;5053351;28;20037;-63
2022/08/16 14:23:47;;;;;;;1.45;1.27;;;;;;;31.87;31.34;99506.28;5053479;28;20108;-63
2022/08/16 14:26:13;;;;;;;1.70;1.57;;;;;;;31.48;31.42;99499.16;5053478;28;20124;-63
2022/08/16 14:28:38;;;;;;;2.20;1.50;;;;;;;31.38;32.18;99493.25;5052241;28;20044;-63
2022/08/16 14:31:05;;;;;;;1.43;1.33;;;;;;;31.29;31.86;99491.31;5052977;28;20120;-63
2022/08/16 14:33:31;;;;;;;2.67;1.30;;;;;;;31.40;32.69;99494.53;5053117;28;20083;-63
2022/08/16 14:35:58;;;;;;;1.42;1.20;;;;;;;31.50;32.41;99496.91;5053116;28;20444;-63
2022/08/16 14:38:23;;;;;;;;;;;;;;;31.50;32.33;99490.59;5053514;28;20062;-63
2022/08/16 14:40:49;;;;;;;1.90;1.40;;;;;;;31.52;31.52;99494.63;5052883;28;20441;-63
2022/08/16 14:43:15;;;;;;;1.40;1.30;;;;;;;31.28;31.40;99495.19;5052983;28;20371;-62
2022/08/16 14:45:40;;;;;;;1.40;1.30;;;;;;;31.17;31.73;99482.09;5053007;28;20098;-62
2022/08/16 14:48:06;;;;;;;2.33;1.40;;;;;;;31.31;32.42;99482.75;5051784;28;20040;-63
2022/08/16 14:50:32;;;;;;;1.60;1.50;;;;;;;31.37;32.38;99486.94;5052550;28;20044;-63
2022/08/16 14:53:05;;;;;;;2.28;1.25;;;;;;;31.22;31.79;99479.97;5052843;28;20478;-63
2022/08/16 14:55:33;;;;;;;1.50;1.25;;;;;;;31.14;31.84;99486.31;5052716;28;20045;-63
2022/08/16 14:57:59;;;;;;;1.52;1.42;;;;;;;30.85;31.83;99480.75;5053033;28;20402;-63
2022/08/16 15:00:26;;;;;;;2.28;1.58;;;;;;;30.85;32.62;99481.56;5052335;28;20041;-63
2022/08/16 15:02:54;;;;;;;1.50;1.40;;;;;;;30.80;32.56;99470.72;5052532;28;20025;-63
2022/08/16 15:05:22;;;;;;;1.70;1.42;;;;;;;30.90;33.20;99472.31;5050403;28;20037;-63
2022/08/16 15:07:50;;;;;;;1.60;1.50;;;;;;;30.82;33.30;99476.69;5052648;28;20033;-63
2022/08/16 15:10:16;;;;;;;1.45;1.30;;;;;;;30.85;33.11;99481.56;5052241;28;20120;-62
2022/08/16 15:12:43;;;;;;;1.95;1.70;;;;;;;30.81;33.08;99475.09;5052424;28;20095;-63
2022/08/16 15:15:12;;;;;;;1.52;1.40;;;;;;;30.82;33.14;99479.44;5052393;28;20033;-63
2022/08/16 15:17:39;;;;;;;3.20;2.28;;;;;;;30.75;32.89;99471.69;5052348;28;20486;-63
2022/08/16 15:20:06;;;;;;;1.73;1.63;;;;;;;30.39;33.17;99473.97;5051859;28;20107;-63
2022/08/16 15:22:36;;;;;;;1.77;1.52;;;;;;;30.63;32.94;99478.97;5052680;28;20064;-63
2022/08/16 15:25:05;;;;;;;1.67;1.58;;;;;;;30.49;33.32;99473.63;5052223;28;20490;-62
2022/08/16 15:27:32;;;;;;;2.40;2.00;;;;;;;30.41;33.25;99472.50;5052230;28;20045;-62
2022/08/16 15:29:59;;;;;;;2.10;1.60;;;;;;;30.45;33.42;99472.66;5050510;28;20032;-63
2022/08/16 15:32:27;;;;;;;1.40;1.30;;;;;;;30.40;33.61;99481.88;5051922;28;20037;-62
2022/08/16 15:34:54;;;;;;;2.10;1.70;;;;;;;30.43;34.10;99470.25;5052053;28;20029;-63
2022/08/16 15:37:21;;;;;;;1.95;1.60;;;;;;;30.17;33.32;99474.91;5051948;28;20565;-63
2022/08/16 15:39:46;;;;;;;1.52;1.42;;;;;;;30.11;33.80;99474.28;5051875;28;20453;-63
2022/08/16 15:42:13;;;;;;;3.20;2.35;;;;;;;30.03;33.37;99475.03;5052115;28;20044;-62
2022/08/16 15:44:40;;;;;;;3.00;2.25;;;;;;;30.06;33.35;99473.56;5052030;28;20493;-62
2022/08/16 15:47:10;;;;;;;;;;;;;;;29.98;33.38;99476.00;5052170;28;20045;-63
2022/08/16 15:49:37;;;;;;;2.42;1.52;;;;;;;30.02;37.76;99472.63;5051589;28;19936;-56
2022/08/16 15:52:10;;;;;;;2.55;1.80;;;;;;;30.00;34.26;99476.50;5051735;28;20437;-54
2022/08/16 15:54:38;;;;;;;1.42;1.33;;;;;;;29.87;34.67;99469.22;5050429;28;20040;-52
2022/08/16 15:57:03;;;;;;;;;;;;;;;29.99;33.93;99479.53;5052215;28;20079;-47
2022/08/16 15:59:29;;;;;;;3.27;2.20;;;;;;;29.87;35.72;99474.69;5066825;28;19917;-48
2022/08/16 16:01:55;;;;;;;2.45;1.80;;;;;;;29.90;34.34;99476.78;5050406;28;20025;-60